Aviation Digital Data Service (ADDS)

Output produced by METARs form (1446 UTC 27 November 2021)
found at http://aviationweather.gov/metar/data/
 
KOEO 271435Z AUTO 05004KT 10SM OVC100 00/M05 A2982 RMK AO2 T00001055 PWINO